sensor_id;sensor_type;location;lat;lon;timestamp;P1;durP1;ratioP1;P2;durP2;ratioP2
45434;SDS011;31183;47.404;8.500;2024-02-28T00:01:19;45.33;;;28.73;;
45434;SDS011;31183;47.404;8.500;2024-02-28T00:03:46;45.22;;;28.00;;
45434;SDS011;31183;47.404;8.500;2024-02-28T00:06:15;42.40;;;26.67;;
45434;SDS011;31183;47.404;8.500;2024-02-28T00:08:42;42.25;;;27.08;;
45434;SDS011;31183;47.404;8.500;2024-02-28T00:11:09;44.05;;;27.02;;
45434;SDS011;31183;47.404;8.500;2024-02-28T00:13:36;44.28;;;27.55;;
45434;SDS011;31183;47.404;8.500;2024-02-28T00:16:03;42.05;;;26.95;;
45434;SDS011;31183;47.404;8.500;2024-02-28T00:18:29;46.03;;;28.30;;
45434;SDS011;31183;47.404;8.500;2024-02-28T00:20:57;42.30;;;28.30;;
45434;SDS011;31183;47.404;8.500;2024-02-28T00:23:25;42.58;;;27.17;;
45434;SDS011;31183;47.404;8.500;2024-02-28T00:25:51;42.13;;;27.35;;
45434;SDS011;31183;47.404;8.500;2024-02-28T00:28:18;44.58;;;26.77;;
45434;SDS011;31183;47.404;8.500;2024-02-28T00:30:45;45.00;;;27.52;;
45434;SDS011;31183;47.404;8.500;2024-02-28T00:33:12;41.40;;;27.20;;
45434;SDS011;31183;47.404;8.500;2024-02-28T00:35:39;39.55;;;26.65;;
45434;SDS011;31183;47.404;8.500;2024-02-28T00:38:08;40.28;;;26.60;;
45434;SDS011;31183;47.404;8.500;2024-02-28T00:40:34;38.10;;;25.85;;
45434;SDS011;31183;47.404;8.500;2024-02-28T00:43:01;37.35;;;25.75;;
45434;SDS011;31183;47.404;8.500;2024-02-28T00:45:28;48.10;;;26.60;;
45434;SDS011;31183;47.404;8.500;2024-02-28T00:47:55;40.90;;;26.27;;
45434;SDS011;31183;47.404;8.500;2024-02-28T00:50:21;44.10;;;27.48;;
45434;SDS011;31183;47.404;8.500;2024-02-28T00:52:48;46.63;;;27.88;;
45434;SDS011;31183;47.404;8.500;2024-02-28T00:55:15;39.42;;;26.17;;
45434;SDS011;31183;47.404;8.500;2024-02-28T00:57:41;41.83;;;26.33;;
45434;SDS011;31183;47.404;8.500;2024-02-28T01:00:08;42.88;;;25.45;;
45434;SDS011;31183;47.404;8.500;2024-02-28T01:02:36;46.10;;;26.35;;
45434;SDS011;31183;47.404;8.500;2024-02-28T01:05:03;40.15;;;26.90;;
45434;SDS011;31183;47.404;8.500;2024-02-28T01:07:29;44.88;;;27.35;;
45434;SDS011;31183;47.404;8.500;2024-02-28T01:09:56;39.60;;;26.10;;
45434;SDS011;31183;47.404;8.500;2024-02-28T01:12:23;39.95;;;25.77;;
45434;SDS011;31183;47.404;8.500;2024-02-28T01:14:50;41.47;;;25.80;;
45434;SDS011;31183;47.404;8.500;2024-02-28T01:17:16;39.05;;;25.83;;
45434;SDS011;31183;47.404;8.500;2024-02-28T01:19:43;41.75;;;25.27;;
45434;SDS011;31183;47.404;8.500;2024-02-28T01:22:09;44.60;;;26.40;;
45434;SDS011;31183;47.404;8.500;2024-02-28T01:24:36;43.35;;;27.02;;
45434;SDS011;31183;47.404;8.500;2024-02-28T01:27:03;42.42;;;27.60;;
45434;SDS011;31183;47.404;8.500;2024-02-28T01:29:30;40.90;;;26.90;;
45434;SDS011;31183;47.404;8.500;2024-02-28T01:31:56;43.50;;;27.15;;
45434;SDS011;31183;47.404;8.500;2024-02-28T01:34:23;44.72;;;27.17;;
45434;SDS011;31183;47.404;8.500;2024-02-28T01:36:50;42.85;;;28.08;;
45434;SDS011;31183;47.404;8.500;2024-02-28T01:39:16;40.88;;;25.17;;
45434;SDS011;31183;47.404;8.500;2024-02-28T01:41:50;45.42;;;27.83;;
45434;SDS011;31183;47.404;8.500;2024-02-28T01:44:20;44.55;;;27.52;;
45434;SDS011;31183;47.404;8.500;2024-02-28T01:46:47;41.53;;;26.35;;
45434;SDS011;31183;47.404;8.500;2024-02-28T01:49:14;39.40;;;24.58;;
45434;SDS011;31183;47.404;8.500;2024-02-28T01:51:42;43.38;;;26.38;;
45434;SDS011;31183;47.404;8.500;2024-02-28T01:54:10;37.72;;;24.17;;
45434;SDS011;31183;47.404;8.500;2024-02-28T01:56:37;36.63;;;24.00;;
45434;SDS011;31183;47.404;8.500;2024-02-28T01:59:04;38.95;;;25.05;;
45434;SDS011;31183;47.404;8.500;2024-02-28T02:01:31;39.88;;;25.92;;
45434;SDS011;31183;47.404;8.500;2024-02-28T02:03:59;41.13;;;24.00;;
45434;SDS011;31183;47.404;8.500;2024-02-28T02:06:25;39.35;;;24.25;;
45434;SDS011;31183;47.404;8.500;2024-02-28T02:08:52;39.45;;;24.20;;
45434;SDS011;31183;47.404;8.500;2024-02-28T02:11:20;36.67;;;25.05;;
45434;SDS011;31183;47.404;8.500;2024-02-28T02:13:51;35.55;;;22.70;;
45434;SDS011;31183;47.404;8.500;2024-02-28T02:16:19;35.75;;;23.08;;
45434;SDS011;31183;47.404;8.500;2024-02-28T02:18:48;39.35;;;25.02;;
45434;SDS011;31183;47.404;8.500;2024-02-28T02:21:17;38.33;;;23.65;;
45434;SDS011;31183;47.404;8.500;2024-02-28T02:23:44;38.67;;;24.95;;
45434;SDS011;31183;47.404;8.500;2024-02-28T02:26:11;39.40;;;23.88;;
45434;SDS011;31183;47.404;8.500;2024-02-28T02:28:38;39.33;;;23.35;;
45434;SDS011;31183;47.404;8.500;2024-02-28T02:31:05;36.90;;;23.20;;
45434;SDS011;31183;47.404;8.500;2024-02-28T02:33:31;38.97;;;24.55;;
45434;SDS011;31183;47.404;8.500;2024-02-28T02:35:58;36.33;;;23.50;;
45434;SDS011;31183;47.404;8.500;2024-02-28T02:38:24;35.95;;;23.80;;
45434;SDS011;31183;47.404;8.500;2024-02-28T02:40:51;36.15;;;22.77;;
45434;SDS011;31183;47.404;8.500;2024-02-28T02:43:18;36.22;;;24.75;;
45434;SDS011;31183;47.404;8.500;2024-02-28T02:45:45;36.47;;;23.35;;
45434;SDS011;31183;47.404;8.500;2024-02-28T02:48:12;35.30;;;24.13;;
45434;SDS011;31183;47.404;8.500;2024-02-28T02:50:38;34.97;;;21.23;;
45434;SDS011;31183;47.404;8.500;2024-02-28T02:53:06;44.25;;;24.85;;
45434;SDS011;31183;47.404;8.500;2024-02-28T02:55:35;35.78;;;22.33;;
45434;SDS011;31183;47.404;8.500;2024-02-28T02:58:02;37.50;;;22.30;;
45434;SDS011;31183;47.404;8.500;2024-02-28T03:00:28;35.05;;;23.75;;
45434;SDS011;31183;47.404;8.500;2024-02-28T03:02:55;37.85;;;24.02;;
45434;SDS011;31183;47.404;8.500;2024-02-28T03:05:22;41.83;;;23.65;;
45434;SDS011;31183;47.404;8.500;2024-02-28T03:07:49;37.40;;;23.15;;
45434;SDS011;31183;47.404;8.500;2024-02-28T03:10:15;35.10;;;21.95;;
45434;SDS011;31183;47.404;8.500;2024-02-28T03:12:42;36.38;;;23.73;;
45434;SDS011;31183;47.404;8.500;2024-02-28T03:15:08;35.78;;;23.65;;
45434;SDS011;31183;47.404;8.500;2024-02-28T03:17:35;39.60;;;23.50;;
45434;SDS011;31183;47.404;8.500;2024-02-28T03:20:02;35.95;;;22.25;;
45434;SDS011;31183;47.404;8.500;2024-02-28T03:22:29;35.47;;;22.38;;
45434;SDS011;31183;47.404;8.500;2024-02-28T03:24:55;34.60;;;21.63;;
45434;SDS011;31183;47.404;8.500;2024-02-28T03:27:22;34.03;;;21.05;;
45434;SDS011;31183;47.404;8.500;2024-02-28T03:29:49;37.47;;;21.23;;
45434;SDS011;31183;47.404;8.500;2024-02-28T03:32:16;33.53;;;21.58;;
45434;SDS011;31183;47.404;8.500;2024-02-28T03:34:42;34.80;;;21.70;;
45434;SDS011;31183;47.404;8.500;2024-02-28T03:37:09;31.83;;;21.48;;
45434;SDS011;31183;47.404;8.500;2024-02-28T03:39:36;35.40;;;21.73;;
45434;SDS011;31183;47.404;8.500;2024-02-28T03:42:02;36.03;;;23.33;;
45434;SDS011;31183;47.404;8.500;2024-02-28T03:44:29;34.85;;;22.50;;
45434;SDS011;31183;47.404;8.500;2024-02-28T03:46:56;36.67;;;21.58;;
45434;SDS011;31183;47.404;8.500;2024-02-28T03:49:22;33.47;;;21.70;;
45434;SDS011;31183;47.404;8.500;2024-02-28T03:51:49;34.50;;;21.73;;
45434;SDS011;31183;47.404;8.500;2024-02-28T03:54:16;31.67;;;21.48;;
45434;SDS011;31183;47.404;8.500;2024-02-28T03:56:43;34.70;;;21.13;;
45434;SDS011;31183;47.404;8.500;2024-02-28T03:59:10;30.58;;;20.00;;
45434;SDS011;31183;47.404;8.500;2024-02-28T04:01:37;30.67;;;19.52;;
45434;SDS011;31183;47.404;8.500;2024-02-28T04:04:04;31.67;;;20.63;;
45434;SDS011;31183;47.404;8.500;2024-02-28T04:06:30;32.75;;;20.20;;
45434;SDS011;31183;47.404;8.500;2024-02-28T04:08:57;29.63;;;19.85;;
45434;SDS011;31183;47.404;8.500;2024-02-28T04:11:24;33.50;;;20.70;;
45434;SDS011;31183;47.404;8.500;2024-02-28T04:13:50;32.47;;;20.23;;
45434;SDS011;31183;47.404;8.500;2024-02-28T04:16:17;33.13;;;20.48;;
45434;SDS011;31183;47.404;8.500;2024-02-28T04:18:44;35.67;;;21.33;;
45434;SDS011;31183;47.404;8.500;2024-02-28T04:21:11;33.47;;;19.90;;
45434;SDS011;31183;47.404;8.500;2024-02-28T04:23:38;30.10;;;20.40;;
45434;SDS011;31183;47.404;8.500;2024-02-28T04:26:05;33.25;;;21.50;;
45434;SDS011;31183;47.404;8.500;2024-02-28T04:28:32;35.58;;;21.15;;
45434;SDS011;31183;47.404;8.500;2024-02-28T04:30:58;34.70;;;20.85;;
45434;SDS011;31183;47.404;8.500;2024-02-28T04:33:25;29.88;;;18.95;;
45434;SDS011;31183;47.404;8.500;2024-02-28T04:35:51;32.58;;;20.30;;
45434;SDS011;31183;47.404;8.500;2024-02-28T04:38:18;32.40;;;19.30;;
45434;SDS011;31183;47.404;8.500;2024-02-28T04:40:45;29.02;;;19.60;;
45434;SDS011;31183;47.404;8.500;2024-02-28T04:43:11;32.00;;;19.45;;
45434;SDS011;31183;47.404;8.500;2024-02-28T04:45:38;33.78;;;22.08;;
45434;SDS011;31183;47.404;8.500;2024-02-28T04:48:05;31.75;;;19.42;;
45434;SDS011;31183;47.404;8.500;2024-02-28T04:50:33;36.10;;;21.23;;
45434;SDS011;31183;47.404;8.500;2024-02-28T04:53:00;32.17;;;19.73;;
45434;SDS011;31183;47.404;8.500;2024-02-28T04:55:26;30.88;;;18.13;;
45434;SDS011;31183;47.404;8.500;2024-02-28T04:57:53;33.80;;;19.58;;
45434;SDS011;31183;47.404;8.500;2024-02-28T05:00:20;31.05;;;20.38;;
45434;SDS011;31183;47.404;8.500;2024-02-28T05:02:47;31.48;;;19.25;;
45434;SDS011;31183;47.404;8.500;2024-02-28T05:05:14;29.45;;;19.30;;
45434;SDS011;31183;47.404;8.500;2024-02-28T05:07:40;29.80;;;18.95;;
45434;SDS011;31183;47.404;8.500;2024-02-28T05:10:07;31.52;;;19.08;;
45434;SDS011;31183;47.404;8.500;2024-02-28T05:12:35;30.52;;;19.20;;
45434;SDS011;31183;47.404;8.500;2024-02-28T05:15:02;30.55;;;19.13;;
45434;SDS011;31183;47.404;8.500;2024-02-28T05:17:29;31.85;;;19.90;;
45434;SDS011;31183;47.404;8.500;2024-02-28T05:19:55;30.55;;;19.27;;
45434;SDS011;31183;47.404;8.500;2024-02-28T05:22:23;29.42;;;19.08;;
45434;SDS011;31183;47.404;8.500;2024-02-28T05:24:50;34.25;;;19.42;;
45434;SDS011;31183;47.404;8.500;2024-02-28T05:27:17;32.50;;;20.40;;
45434;SDS011;31183;47.404;8.500;2024-02-28T05:29:44;31.80;;;18.58;;
45434;SDS011;31183;47.404;8.500;2024-02-28T05:32:10;31.38;;;20.55;;
45434;SDS011;31183;47.404;8.500;2024-02-28T05:34:37;34.30;;;21.05;;
45434;SDS011;31183;47.404;8.500;2024-02-28T05:37:04;31.92;;;20.05;;
45434;SDS011;31183;47.404;8.500;2024-02-28T05:39:31;32.47;;;20.40;;
45434;SDS011;31183;47.404;8.500;2024-02-28T05:41:58;30.65;;;19.05;;
45434;SDS011;31183;47.404;8.500;2024-02-28T05:44:24;32.85;;;21.15;;
45434;SDS011;31183;47.404;8.500;2024-02-28T05:46:51;31.90;;;19.23;;
45434;SDS011;31183;47.404;8.500;2024-02-28T05:49:18;36.53;;;21.35;;
45434;SDS011;31183;47.404;8.500;2024-02-28T05:51:44;31.27;;;20.48;;
45434;SDS011;31183;47.404;8.500;2024-02-28T05:54:12;32.83;;;20.20;;
45434;SDS011;31183;47.404;8.500;2024-02-28T05:56:39;31.40;;;19.92;;
45434;SDS011;31183;47.404;8.500;2024-02-28T05:59:05;31.85;;;20.55;;
45434;SDS011;31183;47.404;8.500;2024-02-28T06:01:32;39.38;;;21.75;;
45434;SDS011;31183;47.404;8.500;2024-02-28T06:03:59;30.75;;;19.60;;
45434;SDS011;31183;47.404;8.500;2024-02-28T06:06:26;31.70;;;19.60;;
45434;SDS011;31183;47.404;8.500;2024-02-28T06:08:52;32.25;;;20.48;;
45434;SDS011;31183;47.404;8.500;2024-02-28T06:11:19;33.92;;;20.27;;
45434;SDS011;31183;47.404;8.500;2024-02-28T06:13:46;30.00;;;19.60;;
45434;SDS011;31183;47.404;8.500;2024-02-28T06:16:15;32.50;;;20.60;;
45434;SDS011;31183;47.404;8.500;2024-02-28T06:18:44;35.35;;;20.27;;
45434;SDS011;31183;47.404;8.500;2024-02-28T06:21:13;32.97;;;20.73;;
45434;SDS011;31183;47.404;8.500;2024-02-28T06:23:40;31.20;;;18.17;;
45434;SDS011;31183;47.404;8.500;2024-02-28T06:26:07;35.00;;;20.00;;
45434;SDS011;31183;47.404;8.500;2024-02-28T06:28:40;35.60;;;19.55;;
45434;SDS011;31183;47.404;8.500;2024-02-28T06:31:12;28.08;;;18.00;;
45434;SDS011;31183;47.404;8.500;2024-02-28T06:33:40;31.42;;;18.63;;
45434;SDS011;31183;47.404;8.500;2024-02-28T06:36:07;27.60;;;17.55;;
45434;SDS011;31183;47.404;8.500;2024-02-28T06:38:33;29.35;;;18.80;;
45434;SDS011;31183;47.404;8.500;2024-02-28T06:41:04;33.45;;;18.33;;
45434;SDS011;31183;47.404;8.500;2024-02-28T06:43:34;29.02;;;18.42;;
45434;SDS011;31183;47.404;8.500;2024-02-28T06:46:04;27.60;;;17.23;;
45434;SDS011;31183;47.404;8.500;2024-02-28T06:48:31;28.00;;;16.20;;
45434;SDS011;31183;47.404;8.500;2024-02-28T06:50:58;32.35;;;18.45;;
45434;SDS011;31183;47.404;8.500;2024-02-28T06:53:25;29.45;;;18.67;;
45434;SDS011;31183;47.404;8.500;2024-02-28T06:55:52;27.17;;;16.75;;
45434;SDS011;31183;47.404;8.500;2024-02-28T06:58:19;29.95;;;17.15;;
45434;SDS011;31183;47.404;8.500;2024-02-28T07:00:46;28.50;;;17.40;;
45434;SDS011;31183;47.404;8.500;2024-02-28T07:03:19;32.92;;;17.10;;
45434;SDS011;31183;47.404;8.500;2024-02-28T07:05:46;25.75;;;17.02;;
45434;SDS011;31183;47.404;8.500;2024-02-28T07:08:12;29.00;;;17.02;;
45434;SDS011;31183;47.404;8.500;2024-02-28T07:10:39;25.60;;;16.40;;
45434;SDS011;31183;47.404;8.500;2024-02-28T07:13:09;24.30;;;15.73;;
45434;SDS011;31183;47.404;8.500;2024-02-28T07:15:36;22.08;;;16.02;;
45434;SDS011;31183;47.404;8.500;2024-02-28T07:18:04;26.05;;;14.82;;
45434;SDS011;31183;47.404;8.500;2024-02-28T07:20:31;25.88;;;15.50;;
45434;SDS011;31183;47.404;8.500;2024-02-28T07:22:58;24.17;;;15.70;;
45434;SDS011;31183;47.404;8.500;2024-02-28T07:25:25;26.63;;;16.27;;
45434;SDS011;31183;47.404;8.500;2024-02-28T07:27:52;26.52;;;15.32;;
45434;SDS011;31183;47.404;8.500;2024-02-28T07:30:18;25.95;;;16.42;;
45434;SDS011;31183;47.404;8.500;2024-02-28T07:32:45;23.85;;;15.32;;
45434;SDS011;31183;47.404;8.500;2024-02-28T07:35:12;29.38;;;15.23;;
45434;SDS011;31183;47.404;8.500;2024-02-28T07:37:38;25.17;;;15.13;;
45434;SDS011;31183;47.404;8.500;2024-02-28T07:40:05;26.25;;;17.00;;
45434;SDS011;31183;47.404;8.500;2024-02-28T07:42:34;27.98;;;16.92;;
45434;SDS011;31183;47.404;8.500;2024-02-28T07:45:01;23.75;;;15.07;;
45434;SDS011;31183;47.404;8.500;2024-02-28T07:47:27;26.95;;;16.50;;
45434;SDS011;31183;47.404;8.500;2024-02-28T07:49:54;24.52;;;15.45;;
45434;SDS011;31183;47.404;8.500;2024-02-28T07:52:21;25.02;;;15.75;;
45434;SDS011;31183;47.404;8.500;2024-02-28T07:54:47;22.88;;;15.65;;
45434;SDS011;31183;47.404;8.500;2024-02-28T07:57:14;27.42;;;15.82;;
45434;SDS011;31183;47.404;8.500;2024-02-28T07:59:41;27.35;;;15.20;;
45434;SDS011;31183;47.404;8.500;2024-02-28T08:02:09;25.48;;;15.40;;
45434;SDS011;31183;47.404;8.500;2024-02-28T08:04:39;25.30;;;15.30;;
45434;SDS011;31183;47.404;8.500;2024-02-28T08:07:06;26.45;;;15.20;;
45434;SDS011;31183;47.404;8.500;2024-02-28T08:09:33;26.17;;;16.38;;
45434;SDS011;31183;47.404;8.500;2024-02-28T08:11:59;25.17;;;15.63;;
45434;SDS011;31183;47.404;8.500;2024-02-28T08:14:26;25.90;;;15.63;;
45434;SDS011;31183;47.404;8.500;2024-02-28T08:16:53;25.60;;;15.35;;
45434;SDS011;31183;47.404;8.500;2024-02-28T08:19:20;28.83;;;15.73;;
45434;SDS011;31183;47.404;8.500;2024-02-28T08:21:47;25.35;;;15.45;;
45434;SDS011;31183;47.404;8.500;2024-02-28T08:24:14;28.00;;;15.35;;
45434;SDS011;31183;47.404;8.500;2024-02-28T08:26:40;26.65;;;15.02;;
45434;SDS011;31183;47.404;8.500;2024-02-28T08:29:08;25.92;;;16.58;;
45434;SDS011;31183;47.404;8.500;2024-02-28T08:31:39;26.55;;;16.17;;
45434;SDS011;31183;47.404;8.500;2024-02-28T08:34:09;27.40;;;16.95;;
45434;SDS011;31183;47.404;8.500;2024-02-28T08:36:36;22.25;;;15.18;;
45434;SDS011;31183;47.404;8.500;2024-02-28T08:39:03;25.23;;;15.27;;
45434;SDS011;31183;47.404;8.500;2024-02-28T08:41:33;22.98;;;13.98;;
45434;SDS011;31183;47.404;8.500;2024-02-28T08:44:00;27.55;;;16.27;;
45434;SDS011;31183;47.404;8.500;2024-02-28T08:46:27;28.17;;;15.35;;
45434;SDS011;31183;47.404;8.500;2024-02-28T08:48:53;21.17;;;14.32;;
45434;SDS011;31183;47.404;8.500;2024-02-28T08:51:20;28.35;;;16.55;;
45434;SDS011;31183;47.404;8.500;2024-02-28T08:53:47;30.52;;;17.15;;
45434;SDS011;31183;47.404;8.500;2024-02-28T08:56:14;23.95;;;15.85;;
45434;SDS011;31183;47.404;8.500;2024-02-28T08:58:41;28.52;;;17.08;;
45434;SDS011;31183;47.404;8.500;2024-02-28T09:01:07;24.67;;;16.52;;
45434;SDS011;31183;47.404;8.500;2024-02-28T09:03:34;28.50;;;17.23;;
45434;SDS011;31183;47.404;8.500;2024-02-28T09:06:01;24.92;;;16.48;;
45434;SDS011;31183;47.404;8.500;2024-02-28T09:08:27;26.05;;;17.75;;
45434;SDS011;31183;47.404;8.500;2024-02-28T09:10:54;23.80;;;15.02;;
45434;SDS011;31183;47.404;8.500;2024-02-28T09:13:21;23.75;;;16.08;;
45434;SDS011;31183;47.404;8.500;2024-02-28T09:15:47;27.33;;;17.75;;
45434;SDS011;31183;47.404;8.500;2024-02-28T09:18:17;25.73;;;15.90;;
45434;SDS011;31183;47.404;8.500;2024-02-28T09:20:44;28.50;;;16.63;;
45434;SDS011;31183;47.404;8.500;2024-02-28T09:23:11;26.33;;;16.10;;
45434;SDS011;31183;47.404;8.500;2024-02-28T09:25:37;27.58;;;16.35;;
45434;SDS011;31183;47.404;8.500;2024-02-28T09:28:04;26.23;;;17.13;;
45434;SDS011;31183;47.404;8.500;2024-02-28T09:30:31;24.77;;;16.35;;
45434;SDS011;31183;47.404;8.500;2024-02-28T09:33:11;28.70;;;17.13;;
45434;SDS011;31183;47.404;8.500;2024-02-28T09:35:38;25.50;;;16.55;;
45434;SDS011;31183;47.404;8.500;2024-02-28T09:38:05;29.48;;;17.95;;
45434;SDS011;31183;47.404;8.500;2024-02-28T09:40:31;26.23;;;16.10;;
45434;SDS011;31183;47.404;8.500;2024-02-28T09:43:02;23.55;;;17.20;;
45434;SDS011;31183;47.404;8.500;2024-02-28T09:45:30;27.80;;;16.60;;
45434;SDS011;31183;47.404;8.500;2024-02-28T09:48:01;25.48;;;16.10;;
45434;SDS011;31183;47.404;8.500;2024-02-28T09:50:29;26.40;;;18.08;;
45434;SDS011;31183;47.404;8.500;2024-02-28T09:52:56;28.15;;;16.98;;
45434;SDS011;31183;47.404;8.500;2024-02-28T09:55:35;27.13;;;16.80;;
45434;SDS011;31183;47.404;8.500;2024-02-28T09:58:02;29.50;;;17.80;;
45434;SDS011;31183;47.404;8.500;2024-02-28T10:00:29;31.58;;;19.77;;
45434;SDS011;31183;47.404;8.500;2024-02-28T10:02:57;28.05;;;17.42;;
45434;SDS011;31183;47.404;8.500;2024-02-28T10:05:24;29.50;;;19.08;;
45434;SDS011;31183;47.404;8.500;2024-02-28T10:07:53;28.33;;;17.35;;
45434;SDS011;31183;47.404;8.500;2024-02-28T10:10:20;29.88;;;17.85;;
45434;SDS011;31183;47.404;8.500;2024-02-28T10:12:47;29.50;;;18.15;;
45434;SDS011;31183;47.404;8.500;2024-02-28T10:15:14;32.63;;;20.25;;
45434;SDS011;31183;47.404;8.500;2024-02-28T10:17:41;28.70;;;18.88;;
45434;SDS011;31183;47.404;8.500;2024-02-28T10:20:08;26.58;;;16.77;;
45434;SDS011;31183;47.404;8.500;2024-02-28T10:22:35;27.40;;;16.90;;
45434;SDS011;31183;47.404;8.500;2024-02-28T10:25:03;28.90;;;17.80;;
45434;SDS011;31183;47.404;8.500;2024-02-28T10:27:33;34.45;;;18.60;;
45434;SDS011;31183;47.404;8.500;2024-02-28T10:30:01;28.90;;;16.98;;
45434;SDS011;31183;47.404;8.500;2024-02-28T10:35:01;28.08;;;17.98;;
45434;SDS011;31183;47.404;8.500;2024-02-28T10:37:28;35.40;;;19.05;;
45434;SDS011;31183;47.404;8.500;2024-02-28T10:39:58;31.67;;;20.48;;
45434;SDS011;31183;47.404;8.500;2024-02-28T10:42:26;27.77;;;17.20;;
45434;SDS011;31183;47.404;8.500;2024-02-28T10:44:57;34.42;;;17.85;;
45434;SDS011;31183;47.404;8.500;2024-02-28T10:47:45;28.30;;;17.92;;
45434;SDS011;31183;47.404;8.500;2024-02-28T10:50:14;29.80;;;19.70;;
45434;SDS011;31183;47.404;8.500;2024-02-28T10:52:45;28.48;;;18.80;;
45434;SDS011;31183;47.404;8.500;2024-02-28T10:55:20;27.92;;;18.48;;
45434;SDS011;31183;47.404;8.500;2024-02-28T10:57:58;32.70;;;19.25;;
45434;SDS011;31183;47.404;8.500;2024-02-28T11:00:30;29.10;;;18.73;;
45434;SDS011;31183;47.404;8.500;2024-02-28T11:02:57;33.05;;;19.63;;
45434;SDS011;31183;47.404;8.500;2024-02-28T11:05:35;30.27;;;19.15;;
45434;SDS011;31183;47.404;8.500;2024-02-28T11:08:03;31.23;;;19.45;;
45434;SDS011;31183;47.404;8.500;2024-02-28T11:10:41;34.03;;;20.00;;
45434;SDS011;31183;47.404;8.500;2024-02-28T11:13:10;31.73;;;18.70;;
45434;SDS011;31183;47.404;8.500;2024-02-28T11:15:47;33.20;;;21.58;;
45434;SDS011;31183;47.404;8.500;2024-02-28T11:18:14;28.83;;;18.70;;
45434;SDS011;31183;47.404;8.500;2024-02-28T11:20:41;30.23;;;17.35;;
45434;SDS011;31183;47.404;8.500;2024-02-28T11:23:09;28.17;;;17.25;;
45434;SDS011;31183;47.404;8.500;2024-02-28T11:25:36;30.75;;;19.35;;
45434;SDS011;31183;47.404;8.500;2024-02-28T11:28:04;29.77;;;20.02;;
45434;SDS011;31183;47.404;8.500;2024-02-28T11:30:31;32.67;;;19.90;;
45434;SDS011;31183;47.404;8.500;2024-02-28T11:32:58;30.25;;;18.63;;
45434;SDS011;31183;47.404;8.500;2024-02-28T11:35:31;32.60;;;19.45;;
45434;SDS011;31183;47.404;8.500;2024-02-28T11:37:58;32.17;;;19.90;;
45434;SDS011;31183;47.404;8.500;2024-02-28T11:40:25;28.83;;;18.30;;
45434;SDS011;31183;47.404;8.500;2024-02-28T11:42:53;38.40;;;19.95;;
45434;SDS011;31183;47.404;8.500;2024-02-28T11:45:21;30.73;;;19.05;;
45434;SDS011;31183;47.404;8.500;2024-02-28T11:47:49;31.50;;;19.52;;
45434;SDS011;31183;47.404;8.500;2024-02-28T11:50:16;30.08;;;19.92;;
45434;SDS011;31183;47.404;8.500;2024-02-28T11:52:46;30.98;;;20.42;;
45434;SDS011;31183;47.404;8.500;2024-02-28T11:55:13;34.45;;;21.63;;
45434;SDS011;31183;47.404;8.500;2024-02-28T11:57:40;36.63;;;21.40;;
45434;SDS011;31183;47.404;8.500;2024-02-28T12:00:07;35.47;;;22.05;;
45434;SDS011;31183;47.404;8.500;2024-02-28T12:02:41;31.88;;;19.98;;
45434;SDS011;31183;47.404;8.500;2024-02-28T12:05:07;32.35;;;20.40;;
45434;SDS011;31183;47.404;8.500;2024-02-28T12:07:35;35.50;;;21.20;;
45434;SDS011;31183;47.404;8.500;2024-02-28T12:10:02;33.83;;;20.60;;
45434;SDS011;31183;47.404;8.500;2024-02-28T12:12:30;37.72;;;21.45;;
45434;SDS011;31183;47.404;8.500;2024-02-28T12:15:00;32.90;;;21.45;;
45434;SDS011;31183;47.404;8.500;2024-02-28T12:17:31;31.95;;;19.98;;
45434;SDS011;31183;47.404;8.500;2024-02-28T12:20:01;32.05;;;20.50;;
45434;SDS011;31183;47.404;8.500;2024-02-28T12:22:28;40.10;;;21.95;;
45434;SDS011;31183;47.404;8.500;2024-02-28T12:24:54;35.15;;;21.00;;
45434;SDS011;31183;47.404;8.500;2024-02-28T12:27:21;35.83;;;20.92;;
45434;SDS011;31183;47.404;8.500;2024-02-28T12:29:48;35.17;;;21.02;;
45434;SDS011;31183;47.404;8.500;2024-02-28T12:32:15;34.33;;;22.15;;
45434;SDS011;31183;47.404;8.500;2024-02-28T12:34:43;34.38;;;22.05;;
45434;SDS011;31183;47.404;8.500;2024-02-28T12:37:10;31.90;;;20.70;;
45434;SDS011;31183;47.404;8.500;2024-02-28T12:39:37;33.20;;;20.85;;
45434;SDS011;31183;47.404;8.500;2024-02-28T12:42:04;33.90;;;21.20;;
45434;SDS011;31183;47.404;8.500;2024-02-28T12:44:33;31.00;;;19.38;;
45434;SDS011;31183;47.404;8.500;2024-02-28T12:46:59;33.05;;;21.35;;
45434;SDS011;31183;47.404;8.500;2024-02-28T12:49:26;35.22;;;20.75;;
45434;SDS011;31183;47.404;8.500;2024-02-28T12:51:52;31.30;;;20.20;;
45434;SDS011;31183;47.404;8.500;2024-02-28T12:54:19;35.03;;;20.65;;
45434;SDS011;31183;47.404;8.500;2024-02-28T12:56:47;37.72;;;21.33;;
45434;SDS011;31183;47.404;8.500;2024-02-28T12:59:14;34.72;;;20.75;;
45434;SDS011;31183;47.404;8.500;2024-02-28T13:01:41;35.85;;;21.98;;
45434;SDS011;31183;47.404;8.500;2024-02-28T13:04:08;33.17;;;21.63;;
45434;SDS011;31183;47.404;8.500;2024-02-28T13:06:35;35.33;;;21.70;;
45434;SDS011;31183;47.404;8.500;2024-02-28T13:09:01;38.20;;;22.88;;
45434;SDS011;31183;47.404;8.500;2024-02-28T13:11:28;37.15;;;22.20;;
45434;SDS011;31183;47.404;8.500;2024-02-28T13:13:55;38.05;;;22.05;;
45434;SDS011;31183;47.404;8.500;2024-02-28T13:16:22;35.20;;;21.63;;
45434;SDS011;31183;47.404;8.500;2024-02-28T13:18:48;33.13;;;21.02;;
45434;SDS011;31183;47.404;8.500;2024-02-28T13:21:15;35.47;;;21.77;;
45434;SDS011;31183;47.404;8.500;2024-02-28T13:23:42;36.00;;;23.55;;
45434;SDS011;31183;47.404;8.500;2024-02-28T13:26:09;33.35;;;21.30;;
45434;SDS011;31183;47.404;8.500;2024-02-28T13:28:43;37.53;;;22.52;;
45434;SDS011;31183;47.404;8.500;2024-02-28T13:31:15;35.70;;;20.77;;
45434;SDS011;31183;47.404;8.500;2024-02-28T13:33:42;34.28;;;21.17;;
45434;SDS011;31183;47.404;8.500;2024-02-28T13:36:09;35.58;;;22.67;;
45434;SDS011;31183;47.404;8.500;2024-02-28T13:38:35;34.30;;;20.23;;
45434;SDS011;31183;47.404;8.500;2024-02-28T13:41:03;33.33;;;20.30;;
45434;SDS011;31183;47.404;8.500;2024-02-28T13:43:30;32.85;;;21.30;;
45434;SDS011;31183;47.404;8.500;2024-02-28T13:45:56;33.03;;;21.55;;
45434;SDS011;31183;47.404;8.500;2024-02-28T13:48:27;35.90;;;22.07;;
45434;SDS011;31183;47.404;8.500;2024-02-28T13:50:59;33.13;;;20.35;;
45434;SDS011;31183;47.404;8.500;2024-02-28T13:53:26;35.95;;;19.17;;
45434;SDS011;31183;47.404;8.500;2024-02-28T13:55:53;35.03;;;21.80;;
45434;SDS011;31183;47.404;8.500;2024-02-28T13:58:20;35.30;;;21.45;;
45434;SDS011;31183;47.404;8.500;2024-02-28T14:00:47;35.17;;;21.98;;
45434;SDS011;31183;47.404;8.500;2024-02-28T14:03:14;37.85;;;23.00;;
45434;SDS011;31183;47.404;8.500;2024-02-28T14:05:41;40.45;;;21.83;;
45434;SDS011;31183;47.404;8.500;2024-02-28T14:08:07;34.70;;;21.10;;
45434;SDS011;31183;47.404;8.500;2024-02-28T14:10:36;38.88;;;21.58;;
45434;SDS011;31183;47.404;8.500;2024-02-28T14:13:03;32.35;;;21.17;;
45434;SDS011;31183;47.404;8.500;2024-02-28T14:15:30;38.10;;;23.55;;
45434;SDS011;31183;47.404;8.500;2024-02-28T14:17:57;35.78;;;21.25;;
45434;SDS011;31183;47.404;8.500;2024-02-28T14:20:23;40.15;;;23.42;;
45434;SDS011;31183;47.404;8.500;2024-02-28T14:22:51;35.17;;;20.88;;
45434;SDS011;31183;47.404;8.500;2024-02-28T14:25:18;31.70;;;20.80;;